Terminal Aerodrome Forecast
Issued by NWS Melbourne, FL

Current Version | Previous Version | Text Only | Print | Product List | Glossary On
Versions: 1 2 3 4 5 6 7 8 9 10 11 12 13 14 15 16 17 18 19
322
FTUS42 KMLB 271128
TAFDAB
TAF
KDAB 271128Z 2712/2812 00000KT 6SM BR FEW030 SCT080
     FM271400 26004KT P6SM SCT025
     FM271700 06008KT P6SM VCTS BKN035CB BKN060
      TEMPO 2717/2720 3SM TSRA BKN025CB
     FM272100 05006KT P6SM VCSH SCT025 BKN070=

USA.gov is the U.S. government's official web portal to all federal, state and local government web resources and services.